createdAt,value
2022-12-20T00:00:57.086Z,2.65
2022-12-20T00:03:24.548Z,2.33
2022-12-20T00:05:51.810Z,2.80
2022-12-20T00:08:18.958Z,2.70
2022-12-20T00:10:47.031Z,2.28
2022-12-20T00:13:14.511Z,2.42
2022-12-20T00:15:42.133Z,2.22
2022-12-20T00:18:09.447Z,2.70
2022-12-20T00:20:37.243Z,2.50
2022-12-20T00:23:04.301Z,2.63
2022-12-20T00:25:31.758Z,2.50
2022-12-20T00:27:59.080Z,2.45
2022-12-20T00:30:26.481Z,2.70
2022-12-20T00:32:54.338Z,2.55
2022-12-20T00:35:21.754Z,2.65
2022-12-20T00:37:49.043Z,2.40
2022-12-20T00:40:16.239Z,2.05
2022-12-20T00:42:43.695Z,2.08
2022-12-20T00:45:12.597Z,1.90
2022-12-20T00:47:39.785Z,2.55
2022-12-20T00:50:07.325Z,3.00
2022-12-20T00:52:34.422Z,2.22
2022-12-20T00:55:01.849Z,2.50
2022-12-20T00:57:28.860Z,2.42
2022-12-20T00:59:55.936Z,2.10
2022-12-20T01:02:23.358Z,2.33
2022-12-20T01:04:50.881Z,2.20
2022-12-20T01:07:19.662Z,2.05
2022-12-20T01:09:47.021Z,2.38
2022-12-20T01:12:14.765Z,2.15
2022-12-20T01:14:42.210Z,2.42
2022-12-20T01:17:09.232Z,2.33
2022-12-20T01:19:36.763Z,2.20
2022-12-20T01:22:06.285Z,2.55
2022-12-20T01:24:35.745Z,2.30
2022-12-20T01:27:02.841Z,2.60
2022-12-20T01:29:30.587Z,2.72
2022-12-20T01:31:57.769Z,2.67
2022-12-20T01:34:24.984Z,2.78
2022-12-20T01:36:52.413Z,2.80
2022-12-20T01:39:19.830Z,2.60
2022-12-20T01:41:47.135Z,3.25
2022-12-20T01:44:17.429Z,2.80
2022-12-20T01:46:46.188Z,3.00
2022-12-20T01:49:19.653Z,3.22
2022-12-20T01:54:16.885Z,2.75
2022-12-20T01:56:45.833Z,2.88
2022-12-20T01:59:13.614Z,2.95
2022-12-20T02:01:42.479Z,2.90
2022-12-20T02:04:10.795Z,2.75
2022-12-20T02:06:38.407Z,3.00
2022-12-20T02:09:07.011Z,3.00
2022-12-20T02:11:53.277Z,3.75
2022-12-20T02:14:36.307Z,3.42
2022-12-20T02:17:17.120Z,3.20
2022-12-20T02:19:55.285Z,3.60
2022-12-20T02:22:40.602Z,3.00
2022-12-20T02:25:08.000Z,3.20
2022-12-20T02:28:13.837Z,3.30
2022-12-20T02:30:43.172Z,3.92
2022-12-20T02:33:14.643Z,3.40
2022-12-20T02:35:43.021Z,3.50
2022-12-20T02:38:30.194Z,3.50
2022-12-20T02:41:03.650Z,3.53
2022-12-20T02:43:51.168Z,3.50
2022-12-20T02:46:20.195Z,3.00
2022-12-20T02:48:48.733Z,3.47
2022-12-20T02:51:17.119Z,3.88
2022-12-20T02:53:44.702Z,3.00
2022-12-20T02:56:14.793Z,3.55
2022-12-20T02:59:05.759Z,3.67
2022-12-20T03:01:35.697Z,3.33
2022-12-20T03:04:06.647Z,3.30
2022-12-20T03:06:36.376Z,3.20
2022-12-20T03:09:03.713Z,3.75
2022-12-20T03:11:30.986Z,3.72
2022-12-20T03:13:58.446Z,3.45
2022-12-20T03:16:25.675Z,3.00
2022-12-20T03:18:53.320Z,3.08
2022-12-20T03:21:21.006Z,3.60
2022-12-20T03:23:48.336Z,3.03
2022-12-20T03:26:15.921Z,3.35
2022-12-20T03:28:43.045Z,3.30
2022-12-20T03:31:10.375Z,3.15
2022-12-20T03:33:37.809Z,3.20
2022-12-20T03:36:07.593Z,3.28
2022-12-20T03:38:34.724Z,3.10
2022-12-20T03:41:02.051Z,3.30
2022-12-20T03:43:29.437Z,2.83
2022-12-20T03:45:56.958Z,3.28
2022-12-20T03:48:24.403Z,3.40
2022-12-20T03:50:51.726Z,3.20
2022-12-20T03:53:19.110Z,3.42
2022-12-20T03:55:46.309Z,3.00
2022-12-20T03:58:13.798Z,3.17
2022-12-20T04:00:41.390Z,3.33
2022-12-20T04:03:08.623Z,3.38
2022-12-20T04:05:35.714Z,3.10
2022-12-20T04:08:03.229Z,3.00
2022-12-20T04:10:30.513Z,3.15
2022-12-20T04:12:57.744Z,3.13
2022-12-20T04:15:25.276Z,3.08
2022-12-20T04:17:52.979Z,3.20
2022-12-20T04:20:20.225Z,3.13
2022-12-20T04:22:48.686Z,2.95
2022-12-20T04:25:16.583Z,3.00
2022-12-20T04:27:44.317Z,3.30
2022-12-20T04:30:12.223Z,3.30
2022-12-20T04:32:39.524Z,3.08
2022-12-20T04:35:06.954Z,3.17
2022-12-20T04:37:36.365Z,2.70
2022-12-20T04:40:03.820Z,3.30
2022-12-20T04:42:31.221Z,2.70
2022-12-20T04:44:58.279Z,2.70
2022-12-20T04:47:25.872Z,2.55
2022-12-20T04:49:53.589Z,3.00
2022-12-20T04:52:45.486Z,3.20
2022-12-20T04:55:14.605Z,2.90
2022-12-20T04:57:41.773Z,2.85
2022-12-20T05:00:09.415Z,3.15
2022-12-20T05:02:36.975Z,2.97
2022-12-20T05:05:06.597Z,3.05
2022-12-20T05:07:33.723Z,3.08
2022-12-20T05:10:01.398Z,3.05
2022-12-20T05:12:28.687Z,2.88
2022-12-20T05:14:55.808Z,3.50
2022-12-20T05:17:23.013Z,3.10
2022-12-20T05:19:50.181Z,3.20
2022-12-20T05:22:35.990Z,3.22
2022-12-20T05:25:22.238Z,3.17
2022-12-20T05:27:49.590Z,3.20
2022-12-20T05:30:17.002Z,3.35
2022-12-20T05:32:44.621Z,2.85
2022-12-20T05:35:11.699Z,3.35
2022-12-20T05:37:39.059Z,2.80
2022-12-20T05:40:06.918Z,3.15
2022-12-20T05:42:36.552Z,3.33
2022-12-20T05:45:05.919Z,3.08
2022-12-20T05:47:35.806Z,3.28
2022-12-20T05:50:04.511Z,2.88
2022-12-20T05:52:31.741Z,3.03
2022-12-20T05:54:59.015Z,3.03
2022-12-20T05:57:26.618Z,3.05
2022-12-20T05:59:53.655Z,3.03
2022-12-20T06:02:21.227Z,3.10
2022-12-20T06:04:48.581Z,2.97
2022-12-20T06:07:15.768Z,3.40
2022-12-20T06:09:43.092Z,2.80
2022-12-20T06:12:10.848Z,2.95
2022-12-20T06:14:37.871Z,2.90
2022-12-20T06:17:08.359Z,2.85
2022-12-20T06:19:35.931Z,3.35
2022-12-20T06:22:03.550Z,2.75
2022-12-20T06:24:31.210Z,2.95
2022-12-20T06:26:59.090Z,3.05
2022-12-20T06:29:26.639Z,2.50
2022-12-20T06:31:55.548Z,2.80
2022-12-20T06:34:23.613Z,2.58
2022-12-20T06:36:52.898Z,2.60
2022-12-20T06:39:20.390Z,2.70
2022-12-20T06:41:47.815Z,2.90
2022-12-20T06:44:15.565Z,2.63
2022-12-20T06:46:43.156Z,2.80
2022-12-20T06:49:10.822Z,2.50
2022-12-20T06:51:38.061Z,2.20
2022-12-20T06:54:05.909Z,2.60
2022-12-20T06:56:39.247Z,2.25
2022-12-20T06:59:08.820Z,2.50
2022-12-20T07:01:36.824Z,2.58
2022-12-20T07:04:06.925Z,2.15
2022-12-20T07:06:34.766Z,2.40
2022-12-20T07:09:02.553Z,2.33
2022-12-20T07:11:30.261Z,2.40
2022-12-20T07:13:58.144Z,2.17
2022-12-20T07:16:27.942Z,2.20
2022-12-20T07:18:55.734Z,2.70
2022-12-20T07:21:23.308Z,1.98
2022-12-20T07:23:51.105Z,2.13
2022-12-20T07:26:18.671Z,2.25
2022-12-20T07:28:46.386Z,1.88
2022-12-20T07:31:14.062Z,1.95
2022-12-20T07:33:49.100Z,2.33
2022-12-20T07:36:16.827Z,1.98
2022-12-20T07:38:44.075Z,1.90
2022-12-20T07:41:15.591Z,2.13
2022-12-20T07:43:44.975Z,1.92
2022-12-20T07:46:16.703Z,2.15
2022-12-20T07:48:44.896Z,2.00
2022-12-20T07:51:30.144Z,2.05
2022-12-20T07:54:13.799Z,2.03
2022-12-20T07:59:12.755Z,2.00
2022-12-20T08:01:41.409Z,1.95
2022-12-20T08:04:13.102Z,1.95
2022-12-20T08:06:42.143Z,2.00
2022-12-20T08:09:09.855Z,2.22
2022-12-20T08:11:38.335Z,1.80
2022-12-20T08:14:07.191Z,1.80
2022-12-20T08:16:34.995Z,1.83
2022-12-20T08:19:03.925Z,2.30
2022-12-20T08:21:31.560Z,1.67
2022-12-20T08:23:59.019Z,2.22
2022-12-20T08:26:28.636Z,2.50
2022-12-20T08:28:56.415Z,2.30
2022-12-20T08:31:23.789Z,2.20
2022-12-20T08:33:55.286Z,2.08
2022-12-20T08:36:22.520Z,1.90
2022-12-20T08:38:50.182Z,2.00
2022-12-20T08:41:17.648Z,1.85
2022-12-20T08:43:45.505Z,2.55
2022-12-20T08:46:13.589Z,1.90
2022-12-20T08:48:41.526Z,1.77
2022-12-20T08:51:10.714Z,2.13
2022-12-20T08:53:41.108Z,1.95
2022-12-20T08:56:10.229Z,1.83
2022-12-20T08:58:38.599Z,2.50
2022-12-20T09:01:10.299Z,2.33
2022-12-20T09:03:37.681Z,2.17
2022-12-20T09:06:14.945Z,2.20
2022-12-20T09:08:42.671Z,2.72
2022-12-20T09:11:17.601Z,2.03
2022-12-20T09:13:48.266Z,2.13
2022-12-20T09:16:18.808Z,2.50
2022-12-20T09:18:49.449Z,2.70
2022-12-20T09:21:19.691Z,2.20
2022-12-20T09:23:48.545Z,3.60
2022-12-20T09:26:17.234Z,2.30
2022-12-20T09:28:45.453Z,2.30
2022-12-20T09:31:14.762Z,2.45
2022-12-20T09:33:42.271Z,2.35
2022-12-20T09:36:17.577Z,2.80
2022-12-20T09:38:45.510Z,2.78
2022-12-20T09:41:28.984Z,2.70
2022-12-20T09:43:56.478Z,3.13
2022-12-20T09:46:27.774Z,2.90
2022-12-20T09:48:55.507Z,2.67
2022-12-20T09:51:29.376Z,2.85
2022-12-20T09:54:18.772Z,2.92
2022-12-20T09:56:46.953Z,2.75
2022-12-20T09:59:18.575Z,2.80
2022-12-20T10:01:51.895Z,3.00
2022-12-20T10:07:07.442Z,2.85
2022-12-20T10:09:55.008Z,2.60
2022-12-20T10:12:28.720Z,2.65
2022-12-20T10:15:02.417Z,2.97
2022-12-20T10:17:53.407Z,3.05
2022-12-20T10:20:21.252Z,2.90
2022-12-20T10:23:07.959Z,3.33
2022-12-20T10:25:35.711Z,3.13
2022-12-20T10:28:17.822Z,3.00
2022-12-20T10:30:45.698Z,2.95
2022-12-20T10:33:19.709Z,2.90
2022-12-20T10:35:47.187Z,3.22
2022-12-20T10:38:19.574Z,3.17
2022-12-20T10:41:19.596Z,3.30
2022-12-20T10:43:45.352Z,3.10
2022-12-20T10:46:13.446Z,3.20
2022-12-20T10:48:42.151Z,3.33
2022-12-20T10:51:15.169Z,3.20
2022-12-20T10:54:01.330Z,2.95
2022-12-20T10:56:32.909Z,3.30
2022-12-20T10:59:02.300Z,3.08
2022-12-20T11:01:34.326Z,3.20
2022-12-20T11:04:06.457Z,3.47
2022-12-20T11:06:40.436Z,3.33
2022-12-20T11:09:34.256Z,3.03
2022-12-20T11:12:14.832Z,3.85
2022-12-20T11:14:46.516Z,3.78
2022-12-20T11:17:23.207Z,3.20
2022-12-20T11:19:56.707Z,3.85
2022-12-20T11:22:32.587Z,3.97
2022-12-20T11:25:08.655Z,2.92
2022-12-20T11:27:36.298Z,3.70
2022-12-20T11:30:39.209Z,3.40
2022-12-20T11:33:07.401Z,3.83
2022-12-20T11:35:37.539Z,3.50
2022-12-20T11:38:12.961Z,3.83
2022-12-20T11:40:55.393Z,3.63
2022-12-20T11:44:15.256Z,3.58
2022-12-20T11:46:37.586Z,4.20
2022-12-20T11:49:17.811Z,4.25
2022-12-20T11:52:01.587Z,3.90
2022-12-20T11:54:37.755Z,4.25
2022-12-20T11:57:13.438Z,4.25
2022-12-20T11:59:49.532Z,3.90
2022-12-20T12:02:18.134Z,4.28
2022-12-20T12:04:52.490Z,4.40
2022-12-20T12:07:22.690Z,4.28
2022-12-20T12:09:50.191Z,4.55
2022-12-20T12:12:44.395Z,4.57
2022-12-20T12:15:29.577Z,4.20
2022-12-20T12:18:16.148Z,4.28
2022-12-20T12:21:10.320Z,4.65
2022-12-20T12:26:31.997Z,4.47
2022-12-20T12:31:32.796Z,4.85
2022-12-20T12:34:13.294Z,4.30
2022-12-20T12:36:51.281Z,4.40
2022-12-20T12:39:18.613Z,4.53
2022-12-20T12:41:55.160Z,4.68
2022-12-20T12:44:27.499Z,4.43
2022-12-20T12:47:00.363Z,4.53
2022-12-20T12:49:31.666Z,4.70
2022-12-20T12:52:07.277Z,4.40
2022-12-20T12:54:41.526Z,5.05
2022-12-20T12:57:15.622Z,4.97
2022-12-20T12:59:47.414Z,4.68
2022-12-20T13:02:15.257Z,4.55
2022-12-20T13:05:03.124Z,4.70
2022-12-20T13:07:36.639Z,4.90
2022-12-20T13:10:25.610Z,5.32
2022-12-20T13:12:55.225Z,4.38
2022-12-20T13:15:22.657Z,4.85
2022-12-20T13:17:53.294Z,5.13
2022-12-20T13:20:40.821Z,5.15
2022-12-20T13:23:13.859Z,5.18
2022-12-20T13:25:49.589Z,5.20
2022-12-20T13:28:18.874Z,4.88
2022-12-20T13:30:47.920Z,5.38
2022-12-20T13:33:24.595Z,5.30
2022-12-20T13:35:57.226Z,5.88
2022-12-20T13:38:40.314Z,5.90
2022-12-20T13:41:18.711Z,6.40
2022-12-20T13:43:47.243Z,6.00
2022-12-20T13:46:19.809Z,5.28
2022-12-20T13:48:47.314Z,5.73
2022-12-20T13:51:22.174Z,5.40
2022-12-20T13:54:00.239Z,6.03
2022-12-20T13:56:27.712Z,5.60
2022-12-20T13:58:58.823Z,5.32
2022-12-20T14:01:27.061Z,5.68
2022-12-20T14:03:54.678Z,5.57
2022-12-20T14:06:26.989Z,6.32
2022-12-20T14:08:54.696Z,5.22
2022-12-20T14:11:29.047Z,5.47
2022-12-20T14:14:00.812Z,5.80
2022-12-20T14:16:32.054Z,5.53
2022-12-20T14:19:08.648Z,5.72
2022-12-20T14:21:40.292Z,6.45
2022-12-20T14:24:13.049Z,6.82
2022-12-20T14:26:48.338Z,8.27
2022-12-20T14:29:20.512Z,11.05
2022-12-20T14:31:50.372Z,6.95
2022-12-20T14:34:30.125Z,9.32
2022-12-20T14:37:17.494Z,8.25
2022-12-20T14:39:59.853Z,8.65
2022-12-20T14:42:31.134Z,6.38
2022-12-20T14:45:12.182Z,6.15
2022-12-20T14:47:43.447Z,6.22
2022-12-20T14:50:30.896Z,5.90
2022-12-20T14:52:58.778Z,6.57
2022-12-20T14:55:32.149Z,6.57
2022-12-20T14:57:59.794Z,6.57
2022-12-20T15:00:37.185Z,6.70
2022-12-20T15:03:13.590Z,6.05
2022-12-20T15:05:46.418Z,6.63
2022-12-20T15:08:28.982Z,6.43
2022-12-20T15:11:13.308Z,6.93
2022-12-20T15:13:46.819Z,6.63
2022-12-20T15:16:15.883Z,7.38
2022-12-20T15:18:43.521Z,6.80
2022-12-20T15:21:15.721Z,7.25
2022-12-20T15:23:51.729Z,7.53
2022-12-20T15:26:20.864Z,9.43
2022-12-20T15:28:49.749Z,10.65
2022-12-20T15:31:23.765Z,11.40
2022-12-20T15:33:59.645Z,11.15
2022-12-20T15:36:28.607Z,10.70
2022-12-20T15:39:12.624Z,8.55
2022-12-20T15:41:42.904Z,8.07
2022-12-20T15:44:24.131Z,8.32
2022-12-20T15:46:52.274Z,8.13
2022-12-20T15:49:24.409Z,7.85
2022-12-20T15:51:53.011Z,7.90
2022-12-20T15:54:25.622Z,7.55
2022-12-20T15:56:53.759Z,7.70
2022-12-20T16:02:20.659Z,7.75
2022-12-20T16:04:48.156Z,8.57
2022-12-20T16:07:15.790Z,8.23
2022-12-20T16:09:43.465Z,9.13
2022-12-20T16:12:22.551Z,9.13
2022-12-20T16:14:49.935Z,9.23
2022-12-20T16:17:18.465Z,9.13
2022-12-20T16:19:47.407Z,9.20
2022-12-20T16:22:19.633Z,9.10
2022-12-20T16:24:50.171Z,8.63
2022-12-20T16:27:48.263Z,9.60
2022-12-20T16:30:16.070Z,9.50
2022-12-20T16:32:43.360Z,10.00
2022-12-20T16:35:23.478Z,8.90
2022-12-20T16:37:50.758Z,9.27
2022-12-20T16:40:18.977Z,8.13
2022-12-20T16:42:49.221Z,8.05
2022-12-20T16:45:21.272Z,8.45
2022-12-20T16:47:51.722Z,8.60
2022-12-20T16:50:19.642Z,8.80
2022-12-20T16:52:47.609Z,9.15
2022-12-20T16:55:16.599Z,8.90
2022-12-20T16:57:44.727Z,9.00
2022-12-20T17:00:17.276Z,8.65
2022-12-20T17:02:47.231Z,9.75
2022-12-20T17:05:42.329Z,8.88
2022-12-20T17:10:54.664Z,9.25
2022-12-20T17:13:22.275Z,9.70
2022-12-20T17:15:49.874Z,9.73
2022-12-20T17:18:18.122Z,9.95
2022-12-20T17:20:51.326Z,9.68
2022-12-20T17:26:06.649Z,8.93
2022-12-20T17:28:34.355Z,10.18
2022-12-20T17:31:07.800Z,10.52
2022-12-20T17:33:44.479Z,10.05
2022-12-20T17:36:11.850Z,9.20
2022-12-20T17:38:43.473Z,10.90
2022-12-20T17:41:31.650Z,9.95
2022-12-20T17:43:59.726Z,10.77
2022-12-20T17:46:35.034Z,10.85
2022-12-20T17:49:02.665Z,10.77
2022-12-20T17:51:31.149Z,10.40
2022-12-20T17:54:04.185Z,10.82
2022-12-20T17:56:36.295Z,11.88
2022-12-20T17:59:08.818Z,10.38
2022-12-20T18:01:36.406Z,11.52
2022-12-20T18:04:09.397Z,12.43
2022-12-20T18:06:42.465Z,12.38
2022-12-20T18:09:16.956Z,12.00
2022-12-20T18:11:47.152Z,11.60
2022-12-20T18:14:18.139Z,11.93
2022-12-20T18:16:45.987Z,12.23
2022-12-20T18:19:17.556Z,12.57
2022-12-20T18:21:51.548Z,13.63
2022-12-20T18:24:21.033Z,13.05
2022-12-20T18:26:48.580Z,13.20
2022-12-20T18:29:19.011Z,13.60
2022-12-20T18:31:46.663Z,14.10
2022-12-20T18:34:16.077Z,14.80
2022-12-20T18:36:43.541Z,14.73
2022-12-20T18:39:15.520Z,14.40
2022-12-20T18:41:44.429Z,15.23
2022-12-20T18:44:15.118Z,16.90
2022-12-20T18:46:44.335Z,16.98
2022-12-20T18:49:12.092Z,16.58
2022-12-20T18:51:41.823Z,15.88
2022-12-20T18:54:24.206Z,18.13
2022-12-20T18:56:51.452Z,17.08
2022-12-20T18:59:21.722Z,19.60
2022-12-20T19:01:51.573Z,17.95
2022-12-20T19:04:24.245Z,18.73
2022-12-20T19:06:56.740Z,26.45
2022-12-20T19:09:26.151Z,17.40
2022-12-20T19:12:01.207Z,18.95
2022-12-20T19:14:28.640Z,19.95
2022-12-20T19:17:02.236Z,17.50
2022-12-20T19:19:29.485Z,19.15
2022-12-20T19:22:00.171Z,20.63
2022-12-20T19:24:27.959Z,22.77
2022-12-20T19:26:55.233Z,21.95
2022-12-20T19:29:23.720Z,19.48
2022-12-20T19:32:13.454Z,18.83
2022-12-20T19:34:39.248Z,20.33
2022-12-20T19:37:06.984Z,19.05
2022-12-20T19:39:34.519Z,29.58
2022-12-20T19:42:26.529Z,20.75
2022-12-20T19:44:56.922Z,20.55
2022-12-20T19:47:28.144Z,20.13
2022-12-20T19:50:10.143Z,19.67
2022-12-20T19:52:42.210Z,19.98
2022-12-20T19:55:09.877Z,20.45
2022-12-20T19:57:40.289Z,23.90
2022-12-20T20:00:10.931Z,20.23
2022-12-20T20:02:43.674Z,22.45
2022-12-20T20:05:15.494Z,23.58
2022-12-20T20:07:44.157Z,23.60
2022-12-20T20:10:11.912Z,21.10
2022-12-20T20:12:41.152Z,22.70
2022-12-20T20:15:11.517Z,23.00
2022-12-20T20:17:39.424Z,23.67
2022-12-20T20:20:23.082Z,19.77
2022-12-20T20:22:52.920Z,26.08
2022-12-20T20:25:24.405Z,27.33
2022-12-20T20:27:55.567Z,21.13
2022-12-20T20:30:23.304Z,22.20
2022-12-20T20:32:53.179Z,25.35
2022-12-20T20:35:20.940Z,22.67
2022-12-20T20:37:49.174Z,24.80
2022-12-20T20:40:20.939Z,24.23
2022-12-20T20:42:49.677Z,23.10
2022-12-20T20:45:17.899Z,24.10
2022-12-20T20:47:46.859Z,23.88
2022-12-20T20:50:21.625Z,26.30
2022-12-20T20:52:49.744Z,25.13
2022-12-20T20:55:20.505Z,26.58
2022-12-20T20:57:51.103Z,25.40
2022-12-20T21:00:20.272Z,24.17
2022-12-20T21:02:48.170Z,27.88
2022-12-20T21:08:07.161Z,24.70
2022-12-20T21:10:37.305Z,24.08
2022-12-20T21:13:07.722Z,27.55
2022-12-20T21:15:36.264Z,28.63
2022-12-20T21:18:03.586Z,25.65
2022-12-20T21:20:31.158Z,23.88
2022-12-20T21:22:59.052Z,25.83
2022-12-20T21:25:26.324Z,24.70
2022-12-20T21:27:53.794Z,24.73
2022-12-20T21:30:21.089Z,29.70
2022-12-20T21:35:35.502Z,25.40
2022-12-20T21:38:03.403Z,26.88
2022-12-20T21:40:30.900Z,26.55
2022-12-20T21:43:00.485Z,25.38
2022-12-20T21:45:28.139Z,22.98
2022-12-20T21:48:01.167Z,22.92
2022-12-20T21:50:30.110Z,23.00
2022-12-20T21:52:57.362Z,25.55
2022-12-20T21:55:24.825Z,26.20
2022-12-20T21:57:51.961Z,24.70
2022-12-20T22:00:19.775Z,24.00
2022-12-20T22:02:47.270Z,23.95
2022-12-20T22:05:15.779Z,26.60
2022-12-20T22:07:42.862Z,28.58
2022-12-20T22:10:10.305Z,24.98
2022-12-20T22:12:37.693Z,28.38
2022-12-20T22:15:07.849Z,28.40
2022-12-20T22:17:35.617Z,22.95
2022-12-20T22:20:03.157Z,23.17
2022-12-20T22:22:30.871Z,27.40
2022-12-20T22:24:58.307Z,25.75
2022-12-20T22:27:25.632Z,24.50
2022-12-20T22:29:53.252Z,25.88
2022-12-20T22:32:20.571Z,26.20
2022-12-20T22:34:47.822Z,24.40
2022-12-20T22:37:14.974Z,22.80
2022-12-20T22:39:42.200Z,26.15
2022-12-20T22:42:15.055Z,26.02
2022-12-20T22:44:43.065Z,23.60
2022-12-20T22:47:10.166Z,29.33
2022-12-20T22:49:37.815Z,24.67
2022-12-20T22:52:07.583Z,23.23
2022-12-20T22:54:43.172Z,23.48
2022-12-20T22:57:11.960Z,23.58
2022-12-20T22:59:39.060Z,24.95
2022-12-20T23:02:06.865Z,23.52
2022-12-20T23:04:34.214Z,25.08
2022-12-20T23:07:01.367Z,26.50
2022-12-20T23:09:28.863Z,27.58
2022-12-20T23:12:15.016Z,23.10
2022-12-20T23:15:04.228Z,22.08
2022-12-20T23:17:32.891Z,25.63
2022-12-20T23:20:19.163Z,25.05
2022-12-20T23:22:46.252Z,23.10
2022-12-20T23:25:15.531Z,26.98
2022-12-20T23:27:43.820Z,31.05
2022-12-20T23:30:12.026Z,29.23
2022-12-20T23:32:44.210Z,26.85
2022-12-20T23:35:13.062Z,27.10
2022-12-20T23:37:41.130Z,23.20
2022-12-20T23:40:09.083Z,21.48
2022-12-20T23:42:36.636Z,24.33
2022-12-20T23:45:06.332Z,30.52
2022-12-20T23:47:33.879Z,24.23
2022-12-20T23:50:01.509Z,28.35
2022-12-20T23:52:28.835Z,25.30
2022-12-20T23:54:55.885Z,23.10
2022-12-20T23:57:23.073Z,25.95
2022-12-20T23:59:50.979Z,32.97
